sensor_id;sensor_type;location;lat;lon;timestamp;pressure;altitude;pressure_sealevel;temperature;humidity
44751;BME280;30477;48.224;11.470;2022-12-15T00:01:54;94710.22;;;-0.56;81.99
44751;BME280;30477;48.224;11.470;2022-12-15T00:04:38;94714.19;;;-0.52;81.98
44751;BME280;30477;48.224;11.470;2022-12-15T00:07:22;94710.41;;;-0.59;81.99
44751;BME280;30477;48.224;11.470;2022-12-15T00:10:06;94703.50;;;-0.57;81.80
44751;BME280;30477;48.224;11.470;2022-12-15T00:12:50;94711.25;;;-0.58;81.89
44751;BME280;30477;48.224;11.470;2022-12-15T00:15:34;94724.88;;;-0.59;81.72
44751;BME280;30477;48.224;11.470;2022-12-15T00:18:18;94713.66;;;-0.57;81.75
44751;BME280;30477;48.224;11.470;2022-12-15T00:21:02;94724.06;;;-0.60;81.55
44751;BME280;30477;48.224;11.470;2022-12-15T00:23:46;94728.91;;;-0.57;81.57
44751;BME280;30477;48.224;11.470;2022-12-15T00:26:30;94719.69;;;-0.58;81.43
44751;BME280;30477;48.224;11.470;2022-12-15T00:29:14;94715.22;;;-0.54;81.43
44751;BME280;30477;48.224;11.470;2022-12-15T00:31:58;94709.91;;;-0.51;81.34
44751;BME280;30477;48.224;11.470;2022-12-15T00:34:42;94710.56;;;-0.60;81.06
44751;BME280;30477;48.224;11.470;2022-12-15T00:37:25;94702.31;;;-0.64;81.13
44751;BME280;30477;48.224;11.470;2022-12-15T00:40:10;94706.19;;;-0.58;81.24
44751;BME280;30477;48.224;11.470;2022-12-15T00:42:35;94711.84;;;-0.55;80.97
44751;BME280;30477;48.224;11.470;2022-12-15T00:45:00;94717.75;;;-0.54;80.95
44751;BME280;30477;48.224;11.470;2022-12-15T00:47:26;94727.31;;;-0.58;80.87
44751;BME280;30477;48.224;11.470;2022-12-15T00:49:51;94731.97;;;-0.52;80.95
44751;BME280;30477;48.224;11.470;2022-12-15T00:52:35;94725.66;;;-0.46;80.91
44751;BME280;30477;48.224;11.470;2022-12-15T00:55:19;94728.00;;;-0.56;80.72
44751;BME280;30477;48.224;11.470;2022-12-15T00:58:03;94737.06;;;-0.52;80.77
44751;BME280;30477;48.224;11.470;2022-12-15T01:00:46;94724.34;;;-0.52;80.75
44751;BME280;30477;48.224;11.470;2022-12-15T01:03:30;94736.66;;;-0.58;80.67
44751;BME280;30477;48.224;11.470;2022-12-15T01:06:15;94734.63;;;-0.66;80.70
44751;BME280;30477;48.224;11.470;2022-12-15T01:09:00;94731.28;;;-0.67;80.82
44751;BME280;30477;48.224;11.470;2022-12-15T01:11:44;94731.38;;;-0.68;80.73
44751;BME280;30477;48.224;11.470;2022-12-15T01:14:29;94738.31;;;-0.70;80.81
44751;BME280;30477;48.224;11.470;2022-12-15T01:17:13;94734.03;;;-0.70;80.76
44751;BME280;30477;48.224;11.470;2022-12-15T01:19:57;94737.88;;;-0.64;80.85
44751;BME280;30477;48.224;11.470;2022-12-15T01:22:39;94748.06;;;-0.64;80.84
44751;BME280;30477;48.224;11.470;2022-12-15T01:25:05;94751.09;;;-0.59;80.89
44751;BME280;30477;48.224;11.470;2022-12-15T01:27:31;94751.09;;;-0.59;80.98
44751;BME280;30477;48.224;11.470;2022-12-15T01:29:56;94752.91;;;-0.61;80.60
44751;BME280;30477;48.224;11.470;2022-12-15T01:32:21;94763.28;;;-0.64;80.70
44751;BME280;30477;48.224;11.470;2022-12-15T01:34:48;94769.28;;;-0.65;80.58
44751;BME280;30477;48.224;11.470;2022-12-15T01:37:13;94765.13;;;-0.66;80.71
44751;BME280;30477;48.224;11.470;2022-12-15T01:39:38;94766.47;;;-0.73;80.70
44751;BME280;30477;48.224;11.470;2022-12-15T01:42:22;94768.31;;;-0.75;80.68
44751;BME280;30477;48.224;11.470;2022-12-15T01:44:49;94767.28;;;-0.86;80.85
44751;BME280;30477;48.224;11.470;2022-12-15T01:47:14;94771.03;;;-0.78;80.76
44751;BME280;30477;48.224;11.470;2022-12-15T01:49:40;94769.28;;;-0.78;80.96
44751;BME280;30477;48.224;11.470;2022-12-15T01:52:06;94768.09;;;-0.72;80.91
44751;BME280;30477;48.224;11.470;2022-12-15T01:54:45;94769.00;;;-0.73;80.80
44751;BME280;30477;48.224;11.470;2022-12-15T01:57:14;94761.38;;;-0.73;81.08
44751;BME280;30477;48.224;11.470;2022-12-15T01:59:43;94757.91;;;-0.72;81.20
44751;BME280;30477;48.224;11.470;2022-12-15T02:02:13;94762.28;;;-0.74;80.85
44751;BME280;30477;48.224;11.470;2022-12-15T02:04:39;94756.19;;;-0.72;81.13
44751;BME280;30477;48.224;11.470;2022-12-15T02:07:05;94763.53;;;-0.67;80.98
44751;BME280;30477;48.224;11.470;2022-12-15T02:09:30;94761.16;;;-0.70;80.84
44751;BME280;30477;48.224;11.470;2022-12-15T02:22:05;94774.81;;;-0.71;80.92
44751;BME280;30477;48.224;11.470;2022-12-15T02:30:14;94792.78;;;-0.74;80.83
44751;BME280;30477;48.224;11.470;2022-12-15T02:32:47;94804.59;;;-0.73;80.99
44751;BME280;30477;48.224;11.470;2022-12-15T02:35:16;94814.53;;;-0.70;81.10
44751;BME280;30477;48.224;11.470;2022-12-15T02:37:43;94821.03;;;-0.66;81.02
44751;BME280;30477;48.224;11.470;2022-12-15T02:40:09;94817.78;;;-0.68;80.93
44751;BME280;30477;48.224;11.470;2022-12-15T02:42:36;94821.66;;;-0.75;80.72
44751;BME280;30477;48.224;11.470;2022-12-15T02:45:09;94823.47;;;-0.77;80.78
44751;BME280;30477;48.224;11.470;2022-12-15T02:47:37;94827.13;;;-0.82;80.85
44751;BME280;30477;48.224;11.470;2022-12-15T02:52:45;94832.94;;;-0.92;80.73
44751;BME280;30477;48.224;11.470;2022-12-15T03:00:25;94834.84;;;-0.96;80.83
44751;BME280;30477;48.224;11.470;2022-12-15T03:02:52;94827.94;;;-0.94;80.80
44751;BME280;30477;48.224;11.470;2022-12-15T03:05:18;94830.97;;;-0.89;80.78
44751;BME280;30477;48.224;11.470;2022-12-15T03:07:44;94827.13;;;-0.94;80.63
44751;BME280;30477;48.224;11.470;2022-12-15T03:10:11;94833.03;;;-0.94;80.62
44751;BME280;30477;48.224;11.470;2022-12-15T03:12:37;94836.28;;;-0.92;80.50
44751;BME280;30477;48.224;11.470;2022-12-15T03:15:02;94846.63;;;-0.95;80.52
44751;BME280;30477;48.224;11.470;2022-12-15T03:17:27;94848.03;;;-0.91;80.68
44751;BME280;30477;48.224;11.470;2022-12-15T03:19:52;94846.63;;;-0.95;80.28
44751;BME280;30477;48.224;11.470;2022-12-15T03:22:18;94845.81;;;-1.08;80.34
44751;BME280;30477;48.224;11.470;2022-12-15T03:24:43;94854.13;;;-1.06;80.59
44751;BME280;30477;48.224;11.470;2022-12-15T03:27:08;94847.41;;;-1.07;80.29
44751;BME280;30477;48.224;11.470;2022-12-15T03:29:33;94849.84;;;-1.18;80.12
44751;BME280;30477;48.224;11.470;2022-12-15T03:31:58;94839.50;;;-1.15;80.16
44751;BME280;30477;48.224;11.470;2022-12-15T03:34:24;94845.47;;;-1.16;80.12
44751;BME280;30477;48.224;11.470;2022-12-15T03:36:50;94845.38;;;-1.15;79.97
44751;BME280;30477;48.224;11.470;2022-12-15T03:39:15;94850.75;;;-1.19;79.83
44751;BME280;30477;48.224;11.470;2022-12-15T03:41:40;94853.41;;;-1.21;79.85
44751;BME280;30477;48.224;11.470;2022-12-15T03:44:06;94858.56;;;-1.23;79.87
44751;BME280;30477;48.224;11.470;2022-12-15T03:46:31;94861.81;;;-1.20;79.83
44751;BME280;30477;48.224;11.470;2022-12-15T03:48:56;94864.91;;;-1.15;80.25
44751;BME280;30477;48.224;11.470;2022-12-15T03:51:22;94864.19;;;-1.17;80.01
44751;BME280;30477;48.224;11.470;2022-12-15T03:53:47;94867.69;;;-1.20;79.90
44751;BME280;30477;48.224;11.470;2022-12-15T03:56:13;94875.44;;;-1.21;79.85
44751;BME280;30477;48.224;11.470;2022-12-15T03:58:38;94868.53;;;-1.19;79.87
44751;BME280;30477;48.224;11.470;2022-12-15T04:03:35;94874.41;;;-1.19;79.85
44751;BME280;30477;48.224;11.470;2022-12-15T04:06:00;94882.38;;;-1.11;79.95
44751;BME280;30477;48.224;11.470;2022-12-15T04:08:25;94881.44;;;-1.10;79.83
44751;BME280;30477;48.224;11.470;2022-12-15T04:10:50;94881.75;;;-1.14;79.69
44751;BME280;30477;48.224;11.470;2022-12-15T04:13:16;94883.38;;;-1.13;79.83
44751;BME280;30477;48.224;11.470;2022-12-15T04:15:41;94881.56;;;-1.11;79.88
44751;BME280;30477;48.224;11.470;2022-12-15T04:18:07;94886.44;;;-1.08;79.73
44751;BME280;30477;48.224;11.470;2022-12-15T04:20:33;94886.03;;;-1.02;79.83
44751;BME280;30477;48.224;11.470;2022-12-15T04:22:59;94892.94;;;-1.04;79.79
44751;BME280;30477;48.224;11.470;2022-12-15T04:25:24;94885.63;;;-1.09;79.57
44751;BME280;30477;48.224;11.470;2022-12-15T04:28:08;94887.03;;;-1.17;79.55
44751;BME280;30477;48.224;11.470;2022-12-15T04:30:57;94877.38;;;-1.12;79.56
44751;BME280;30477;48.224;11.470;2022-12-15T04:33:43;94880.31;;;-1.18;79.38
44751;BME280;30477;48.224;11.470;2022-12-15T04:36:28;94879.81;;;-1.24;79.29
44751;BME280;30477;48.224;11.470;2022-12-15T04:39:12;94882.34;;;-1.24;79.40
44751;BME280;30477;48.224;11.470;2022-12-15T04:41:56;94892.09;;;-1.17;79.56
44751;BME280;30477;48.224;11.470;2022-12-15T04:44:42;94893.94;;;-1.19;79.64
44751;BME280;30477;48.224;11.470;2022-12-15T04:47:25;94894.34;;;-1.13;79.63
44751;BME280;30477;48.224;11.470;2022-12-15T04:50:09;94894.44;;;-1.14;79.27
44751;BME280;30477;48.224;11.470;2022-12-15T04:52:54;94887.13;;;-1.19;79.49
44751;BME280;30477;48.224;11.470;2022-12-15T04:55:38;94895.34;;;-1.15;79.43
44751;BME280;30477;48.224;11.470;2022-12-15T04:58:22;94904.69;;;-1.16;79.42
44751;BME280;30477;48.224;11.470;2022-12-15T05:01:06;94901.53;;;-1.19;79.39
44751;BME280;30477;48.224;11.470;2022-12-15T05:03:50;94895.63;;;-1.20;79.48
44751;BME280;30477;48.224;11.470;2022-12-15T05:06:34;94905.91;;;-1.21;79.38
44751;BME280;30477;48.224;11.470;2022-12-15T05:09:18;94895.75;;;-1.21;79.53
44751;BME280;30477;48.224;11.470;2022-12-15T05:12:02;94904.47;;;-1.26;79.37
44751;BME280;30477;48.224;11.470;2022-12-15T05:14:46;94911.38;;;-1.28;79.46
44751;BME280;30477;48.224;11.470;2022-12-15T05:17:30;94912.13;;;-1.40;79.50
44751;BME280;30477;48.224;11.470;2022-12-15T05:20:13;94906.63;;;-1.47;79.57
44751;BME280;30477;48.224;11.470;2022-12-15T05:22:57;94918.22;;;-1.42;79.54
44751;BME280;30477;48.224;11.470;2022-12-15T05:25:41;94918.09;;;-1.41;79.59
44751;BME280;30477;48.224;11.470;2022-12-15T05:28:25;94932.09;;;-1.48;79.29
44751;BME280;30477;48.224;11.470;2022-12-15T05:31:09;94935.50;;;-1.49;79.44
44751;BME280;30477;48.224;11.470;2022-12-15T05:33:53;94939.50;;;-1.45;79.50
44751;BME280;30477;48.224;11.470;2022-12-15T05:36:19;94947.22;;;-1.47;79.57
44751;BME280;30477;48.224;11.470;2022-12-15T05:38:46;94945.22;;;-1.41;79.63
44751;BME280;30477;48.224;11.470;2022-12-15T05:41:12;94940.84;;;-1.39;79.51
44751;BME280;30477;48.224;11.470;2022-12-15T05:43:37;94940.41;;;-1.46;79.45
44751;BME280;30477;48.224;11.470;2022-12-15T05:46:03;94942.69;;;-1.56;79.58
44751;BME280;30477;48.224;11.470;2022-12-15T05:48:28;94951.47;;;-1.47;79.55
44751;BME280;30477;48.224;11.470;2022-12-15T05:50:53;94956.38;;;-1.44;79.49
44751;BME280;30477;48.224;11.470;2022-12-15T05:53:19;94944.56;;;-1.45;79.32
44751;BME280;30477;48.224;11.470;2022-12-15T05:55:44;94941.31;;;-1.47;79.36
44751;BME280;30477;48.224;11.470;2022-12-15T05:58:09;94953.09;;;-1.46;79.30
44751;BME280;30477;48.224;11.470;2022-12-15T06:00:35;94965.06;;;-1.48;79.34
44751;BME280;30477;48.224;11.470;2022-12-15T06:03:00;94965.97;;;-1.49;79.44
44751;BME280;30477;48.224;11.470;2022-12-15T06:05:26;94967.63;;;-1.48;79.49
44751;BME280;30477;48.224;11.470;2022-12-15T06:07:51;94961.81;;;-1.50;79.38
44751;BME280;30477;48.224;11.470;2022-12-15T06:10:17;94970.53;;;-1.54;79.32
44751;BME280;30477;48.224;11.470;2022-12-15T06:12:42;94978.84;;;-1.52;79.38
44751;BME280;30477;48.224;11.470;2022-12-15T06:15:07;94983.28;;;-1.41;79.61
44751;BME280;30477;48.224;11.470;2022-12-15T06:17:32;94973.94;;;-1.41;79.36
44751;BME280;30477;48.224;11.470;2022-12-15T06:19:58;94982.38;;;-1.40;79.46
44751;BME280;30477;48.224;11.470;2022-12-15T06:22:23;94986.72;;;-1.42;79.49
44751;BME280;30477;48.224;11.470;2022-12-15T06:24:48;94997.78;;;-1.44;79.49
44751;BME280;30477;48.224;11.470;2022-12-15T06:27:13;94998.41;;;-1.40;79.48
44751;BME280;30477;48.224;11.470;2022-12-15T06:29:39;94999.94;;;-1.37;79.60
44751;BME280;30477;48.224;11.470;2022-12-15T06:32:04;94998.94;;;-1.35;79.54
44751;BME280;30477;48.224;11.470;2022-12-15T06:34:29;95001.84;;;-1.41;79.50
44751;BME280;30477;48.224;11.470;2022-12-15T06:36:54;95003.88;;;-1.46;79.25
44751;BME280;30477;48.224;11.470;2022-12-15T06:39:20;95007.84;;;-1.42;79.56
44751;BME280;30477;48.224;11.470;2022-12-15T06:41:45;95006.13;;;-1.41;79.51
44751;BME280;30477;48.224;11.470;2022-12-15T06:44:13;95008.56;;;-1.40;79.42
44751;BME280;30477;48.224;11.470;2022-12-15T06:46:39;95014.28;;;-1.36;79.54
44751;BME280;30477;48.224;11.470;2022-12-15T06:49:04;95008.56;;;-1.40;79.54
44751;BME280;30477;48.224;11.470;2022-12-15T06:51:29;95015.25;;;-1.39;79.59
44751;BME280;30477;48.224;11.470;2022-12-15T06:53:55;95021.97;;;-1.38;79.50
44751;BME280;30477;48.224;11.470;2022-12-15T06:56:21;95020.44;;;-1.40;79.70
44751;BME280;30477;48.224;11.470;2022-12-15T06:58:47;95031.94;;;-1.35;79.77
44751;BME280;30477;48.224;11.470;2022-12-15T07:01:13;95030.47;;;-1.39;79.74
44751;BME280;30477;48.224;11.470;2022-12-15T07:03:39;95025.06;;;-1.47;79.75
44751;BME280;30477;48.224;11.470;2022-12-15T07:06:05;95024.34;;;-1.49;79.98
44751;BME280;30477;48.224;11.470;2022-12-15T07:08:32;95028.16;;;-1.56;79.88
44751;BME280;30477;48.224;11.470;2022-12-15T07:10:57;95022.00;;;-1.52;80.03
44751;BME280;30477;48.224;11.470;2022-12-15T07:13:23;95014.38;;;-1.52;80.04
44751;BME280;30477;48.224;11.470;2022-12-15T07:15:48;95028.00;;;-1.53;80.17
44751;BME280;30477;48.224;11.470;2022-12-15T07:18:14;95032.13;;;-1.52;80.03
44751;BME280;30477;48.224;11.470;2022-12-15T07:20:40;95035.13;;;-1.60;79.98
44751;BME280;30477;48.224;11.470;2022-12-15T07:23:05;95043.09;;;-1.66;80.18
44751;BME280;30477;48.224;11.470;2022-12-15T07:25:36;95052.09;;;-1.60;80.22
44751;BME280;30477;48.224;11.470;2022-12-15T07:28:01;95046.91;;;-1.59;80.19
44751;BME280;30477;48.224;11.470;2022-12-15T07:30:26;95056.72;;;-1.67;80.51
44751;BME280;30477;48.224;11.470;2022-12-15T07:32:52;95039.31;;;-1.73;80.28
44751;BME280;30477;48.224;11.470;2022-12-15T07:35:17;95047.91;;;-1.76;80.39
44751;BME280;30477;48.224;11.470;2022-12-15T07:37:42;95037.59;;;-1.73;80.52
44751;BME280;30477;48.224;11.470;2022-12-15T07:40:08;95036.50;;;-1.83;80.45
44751;BME280;30477;48.224;11.470;2022-12-15T07:42:33;95038.41;;;-1.87;80.51
44751;BME280;30477;48.224;11.470;2022-12-15T07:44:59;95031.88;;;-1.91;80.68
44751;BME280;30477;48.224;11.470;2022-12-15T07:47:24;95034.06;;;-1.85;80.76
44751;BME280;30477;48.224;11.470;2022-12-15T07:49:49;95041.41;;;-1.80;80.79
44751;BME280;30477;48.224;11.470;2022-12-15T07:52:14;95044.38;;;-1.88;80.75
44751;BME280;30477;48.224;11.470;2022-12-15T07:54:40;95038.13;;;-1.82;80.88
44751;BME280;30477;48.224;11.470;2022-12-15T07:57:05;95031.78;;;-1.75;80.85
44751;BME280;30477;48.224;11.470;2022-12-15T07:59:32;95022.91;;;-1.82;80.54
44751;BME280;30477;48.224;11.470;2022-12-15T08:01:57;95022.34;;;-1.87;80.72
44751;BME280;30477;48.224;11.470;2022-12-15T08:04:24;95013.28;;;-1.91;80.70
44751;BME280;30477;48.224;11.470;2022-12-15T08:06:49;95011.59;;;-1.76;80.88
44751;BME280;30477;48.224;11.470;2022-12-15T08:09:15;95001.19;;;-1.72;80.76
44751;BME280;30477;48.224;11.470;2022-12-15T08:11:40;95015.91;;;-1.64;80.96
44751;BME280;30477;48.224;11.470;2022-12-15T08:14:05;95030.63;;;-1.55;80.75
44751;BME280;30477;48.224;11.470;2022-12-15T08:16:31;95028.72;;;-1.66;80.50
44751;BME280;30477;48.224;11.470;2022-12-15T08:18:58;95038.88;;;-1.66;80.64
44751;BME280;30477;48.224;11.470;2022-12-15T08:21:23;95056.50;;;-1.50;80.58
44751;BME280;30477;48.224;11.470;2022-12-15T08:23:49;95066.00;;;-1.39;80.60
44751;BME280;30477;48.224;11.470;2022-12-15T08:26:15;95064.47;;;-1.41;80.39
44751;BME280;30477;48.224;11.470;2022-12-15T08:28:41;95073.28;;;-1.47;80.14
44751;BME280;30477;48.224;11.470;2022-12-15T08:31:07;95074.75;;;-1.57;80.22
44751;BME280;30477;48.224;11.470;2022-12-15T08:33:33;95080.06;;;-1.62;80.05
44751;BME280;30477;48.224;11.470;2022-12-15T08:35:59;95089.59;;;-1.66;80.09
44751;BME280;30477;48.224;11.470;2022-12-15T08:38:26;95098.56;;;-1.60;80.05
44751;BME280;30477;48.224;11.470;2022-12-15T08:40:51;95088.69;;;-1.65;80.07
44751;BME280;30477;48.224;11.470;2022-12-15T08:43:17;95102.53;;;-1.56;79.99
44751;BME280;30477;48.224;11.470;2022-12-15T08:45:42;95098.84;;;-1.50;79.87
44751;BME280;30477;48.224;11.470;2022-12-15T08:48:07;95091.66;;;-1.58;79.67
44751;BME280;30477;48.224;11.470;2022-12-15T08:50:32;95102.53;;;-1.56;79.84
44751;BME280;30477;48.224;11.470;2022-12-15T08:52:57;95117.34;;;-1.48;79.81
44751;BME280;30477;48.224;11.470;2022-12-15T08:55:23;95112.25;;;-1.48;79.63
44751;BME280;30477;48.224;11.470;2022-12-15T08:57:49;95113.72;;;-1.44;79.69
44751;BME280;30477;48.224;11.470;2022-12-15T09:00:14;95111.53;;;-1.36;79.70
44751;BME280;30477;48.224;11.470;2022-12-15T09:02:40;95110.72;;;-1.36;79.57
44751;BME280;30477;48.224;11.470;2022-12-15T09:05:05;95113.16;;;-1.35;79.72
44751;BME280;30477;48.224;11.470;2022-12-15T09:07:31;95119.69;;;-1.31;79.36
44751;BME280;30477;48.224;11.470;2022-12-15T09:09:56;95104.81;;;-1.23;79.53
44751;BME280;30477;48.224;11.470;2022-12-15T09:12:21;95100.47;;;-1.20;79.32
44751;BME280;30477;48.224;11.470;2022-12-15T09:14:47;95101.47;;;-1.23;79.38
44751;BME280;30477;48.224;11.470;2022-12-15T09:17:12;95102.63;;;-1.29;79.34
44751;BME280;30477;48.224;11.470;2022-12-15T09:19:37;95088.69;;;-1.21;79.21
44751;BME280;30477;48.224;11.470;2022-12-15T09:22:02;95085.44;;;-1.24;79.17
44751;BME280;30477;48.224;11.470;2022-12-15T09:24:29;95074.19;;;-1.19;79.24
44751;BME280;30477;48.224;11.470;2022-12-15T09:26:54;95064.38;;;-1.11;79.08
44751;BME280;30477;48.224;11.470;2022-12-15T09:29:20;95074.53;;;-1.11;79.11
44751;BME280;30477;48.224;11.470;2022-12-15T09:31:45;95074.69;;;-1.14;79.08
44751;BME280;30477;48.224;11.470;2022-12-15T09:34:12;95075.44;;;-1.27;78.90
44751;BME280;30477;48.224;11.470;2022-12-15T09:36:37;95072.75;;;-1.38;78.81
44751;BME280;30477;48.224;11.470;2022-12-15T09:39:03;95063.66;;;-1.28;79.09
44751;BME280;30477;48.224;11.470;2022-12-15T09:41:29;95061.28;;;-1.16;79.01
44751;BME280;30477;48.224;11.470;2022-12-15T09:43:55;95048.78;;;-1.19;78.99
44751;BME280;30477;48.224;11.470;2022-12-15T09:48:50;95056.56;;;-1.23;78.90
44751;BME280;30477;48.224;11.470;2022-12-15T09:51:16;95054.59;;;-1.32;78.98
44751;BME280;30477;48.224;11.470;2022-12-15T09:53:42;95065.38;;;-1.28;79.06
44751;BME280;30477;48.224;11.470;2022-12-15T09:56:20;95056.41;;;-1.19;79.06
44751;BME280;30477;48.224;11.470;2022-12-15T09:59:00;95048.94;;;-1.08;78.99
44751;BME280;30477;48.224;11.470;2022-12-15T10:01:37;95047.53;;;-0.99;79.00
44751;BME280;30477;48.224;11.470;2022-12-15T10:04:10;95040.22;;;-1.04;78.85
44751;BME280;30477;48.224;11.470;2022-12-15T10:09:15;95039.81;;;-0.84;79.17
44751;BME280;30477;48.224;11.470;2022-12-15T10:14:27;95041.06;;;-0.91;78.71
44751;BME280;30477;48.224;11.470;2022-12-15T10:17:01;95039.97;;;-0.87;78.89
44751;BME280;30477;48.224;11.470;2022-12-15T10:22:20;95021.44;;;-1.02;78.47
44751;BME280;30477;48.224;11.470;2022-12-15T10:24:46;95011.91;;;-0.98;78.87
44751;BME280;30477;48.224;11.470;2022-12-15T10:27:17;95011.63;;;-0.93;78.88
44751;BME280;30477;48.224;11.470;2022-12-15T10:29:50;95009.16;;;-0.95;78.75
44751;BME280;30477;48.224;11.470;2022-12-15T10:32:41;95019.31;;;-0.95;78.90
44751;BME280;30477;48.224;11.470;2022-12-15T10:35:15;95024.41;;;-0.95;78.95
44751;BME280;30477;48.224;11.470;2022-12-15T10:37:41;95030.19;;;-0.93;78.91
44751;BME280;30477;48.224;11.470;2022-12-15T10:40:06;95031.78;;;-0.77;78.94
44751;BME280;30477;48.224;11.470;2022-12-15T10:42:32;95036.03;;;-0.78;78.72
44751;BME280;30477;48.224;11.470;2022-12-15T10:45:09;95036.50;;;-0.71;78.77
44751;BME280;30477;48.224;11.470;2022-12-15T10:47:56;95037.94;;;-0.67;78.74
44751;BME280;30477;48.224;11.470;2022-12-15T10:50:23;95023.38;;;-0.65;78.69
44751;BME280;30477;48.224;11.470;2022-12-15T10:52:49;95009.25;;;-0.69;78.75
44751;BME280;30477;48.224;11.470;2022-12-15T10:57:59;95006.94;;;-0.59;78.64
44751;BME280;30477;48.224;11.470;2022-12-15T11:00:31;95000.13;;;-0.59;78.53
44751;BME280;30477;48.224;11.470;2022-12-15T11:02:57;94986.66;;;-0.74;78.08
44751;BME280;30477;48.224;11.470;2022-12-15T11:05:22;94968.66;;;-0.96;78.21
44751;BME280;30477;48.224;11.470;2022-12-15T11:12:55;94985.06;;;-1.02;78.42
44751;BME280;30477;48.224;11.470;2022-12-15T11:20:34;94987.13;;;-0.94;78.51
44751;BME280;30477;48.224;11.470;2022-12-15T11:25:59;94974.56;;;-1.10;78.53
44751;BME280;30477;48.224;11.470;2022-12-15T11:28:43;94970.56;;;-1.00;78.83
44751;BME280;30477;48.224;11.470;2022-12-15T11:31:13;94970.63;;;-1.02;78.69
44751;BME280;30477;48.224;11.470;2022-12-15T11:33:41;94978.03;;;-1.11;78.72
44751;BME280;30477;48.224;11.470;2022-12-15T11:38:57;94957.53;;;-1.08;78.87
44751;BME280;30477;48.224;11.470;2022-12-15T11:46:40;94947.41;;;-0.95;79.11
44751;BME280;30477;48.224;11.470;2022-12-15T11:51:51;94969.06;;;-0.90;79.26
44751;BME280;30477;48.224;11.470;2022-12-15T12:04:19;94985.81;;;-0.87;79.21
44751;BME280;30477;48.224;11.470;2022-12-15T12:06:54;94984.50;;;-0.80;79.38
44751;BME280;30477;48.224;11.470;2022-12-15T12:09:31;94978.13;;;-0.86;79.06
44751;BME280;30477;48.224;11.470;2022-12-15T12:17:05;94957.38;;;-0.92;79.10
44751;BME280;30477;48.224;11.470;2022-12-15T12:19:42;94955.25;;;-0.86;79.17
44751;BME280;30477;48.224;11.470;2022-12-15T12:22:14;94941.63;;;-0.85;79.32
44751;BME280;30477;48.224;11.470;2022-12-15T12:24:47;94923.25;;;-0.88;79.18
44751;BME280;30477;48.224;11.470;2022-12-15T12:27:22;94912.47;;;-0.92;79.19
44751;BME280;30477;48.224;11.470;2022-12-15T12:29:56;94905.53;;;-1.03;78.86
44751;BME280;30477;48.224;11.470;2022-12-15T12:34:57;94903.16;;;-1.18;79.42
44751;BME280;30477;48.224;11.470;2022-12-15T12:37:30;94896.97;;;-1.14;79.72
44751;BME280;30477;48.224;11.470;2022-12-15T12:40:01;94892.22;;;-1.06;79.82
44751;BME280;30477;48.224;11.470;2022-12-15T12:42:30;94884.31;;;-1.02;79.87
44751;BME280;30477;48.224;11.470;2022-12-15T12:44:58;94877.31;;;-0.98;79.82
44751;BME280;30477;48.224;11.470;2022-12-15T12:47:26;94869.47;;;-1.08;79.67
44751;BME280;30477;48.224;11.470;2022-12-15T12:49:54;94883.56;;;-1.16;79.85
44751;BME280;30477;48.224;11.470;2022-12-15T12:54:46;94882.38;;;-1.38;79.91
44751;BME280;30477;48.224;11.470;2022-12-15T12:57:29;94881.47;;;-1.37;80.08
44751;BME280;30477;48.224;11.470;2022-12-15T12:59:59;94892.63;;;-1.39;80.00
44751;BME280;30477;48.224;11.470;2022-12-15T13:07:28;94903.59;;;-1.39;80.06
44751;BME280;30477;48.224;11.470;2022-12-15T13:15:28;94913.34;;;-1.33;80.06
44751;BME280;30477;48.224;11.470;2022-12-15T13:17:47;94907.78;;;-1.38;79.95
44751;BME280;30477;48.224;11.470;2022-12-15T13:20:16;94906.13;;;-1.39;80.21
44751;BME280;30477;48.224;11.470;2022-12-15T13:22:42;94913.19;;;-1.30;80.09
44751;BME280;30477;48.224;11.470;2022-12-15T13:27:51;94904.50;;;-1.40;80.10
44751;BME280;30477;48.224;11.470;2022-12-15T13:30:17;94906.66;;;-1.34;80.03
44751;BME280;30477;48.224;11.470;2022-12-15T13:32:43;94900.78;;;-1.34;79.88
44751;BME280;30477;48.224;11.470;2022-12-15T13:37:52;94882.06;;;-1.46;80.24
44751;BME280;30477;48.224;11.470;2022-12-15T13:40:24;94875.66;;;-1.39;80.25
44751;BME280;30477;48.224;11.470;2022-12-15T13:50:51;94875.63;;;-1.25;80.45
44751;BME280;30477;48.224;11.470;2022-12-15T13:53:20;94871.84;;;-1.32;80.37
44751;BME280;30477;48.224;11.470;2022-12-15T13:55:51;94871.53;;;-1.40;80.31
44751;BME280;30477;48.224;11.470;2022-12-15T13:58:17;94866.03;;;-1.47;80.34
44751;BME280;30477;48.224;11.470;2022-12-15T14:00:52;94864.03;;;-1.56;80.36
44751;BME280;30477;48.224;11.470;2022-12-15T14:03:18;94860.63;;;-1.55;80.56
44751;BME280;30477;48.224;11.470;2022-12-15T14:05:47;94858.25;;;-1.58;80.52
44751;BME280;30477;48.224;11.470;2022-12-15T14:08:14;94852.72;;;-1.50;80.59
44751;BME280;30477;48.224;11.470;2022-12-15T14:13:10;94874.78;;;-1.38;80.65
44751;BME280;30477;48.224;11.470;2022-12-15T14:15:39;94873.13;;;-1.39;80.60
44751;BME280;30477;48.224;11.470;2022-12-15T14:18:05;94863.69;;;-1.37;80.61
44751;BME280;30477;48.224;11.470;2022-12-15T14:20:31;94868.19;;;-1.40;80.45
44751;BME280;30477;48.224;11.470;2022-12-15T14:23:05;94863.91;;;-1.40;80.52
44751;BME280;30477;48.224;11.470;2022-12-15T14:25:30;94862.00;;;-1.36;80.72
44751;BME280;30477;48.224;11.470;2022-12-15T14:27:56;94856.63;;;-1.32;80.61
44751;BME280;30477;48.224;11.470;2022-12-15T14:30:28;94855.91;;;-1.34;80.49
44751;BME280;30477;48.224;11.470;2022-12-15T14:32:59;94851.00;;;-1.37;80.57
44751;BME280;30477;48.224;11.470;2022-12-15T14:37:54;94838.13;;;-1.34;80.60
44751;BME280;30477;48.224;11.470;2022-12-15T14:40:21;94846.34;;;-1.30;80.76
44751;BME280;30477;48.224;11.470;2022-12-15T14:42:46;94851.44;;;-1.30;80.44
44751;BME280;30477;48.224;11.470;2022-12-15T14:45:19;94846.72;;;-1.49;80.39
44751;BME280;30477;48.224;11.470;2022-12-15T14:47:49;94847.31;;;-1.58;80.51
44751;BME280;30477;48.224;11.470;2022-12-15T14:50:15;94850.94;;;-1.63;80.67
44751;BME280;30477;48.224;11.470;2022-12-15T14:52:41;94841.72;;;-1.64;80.91
44751;BME280;30477;48.224;11.470;2022-12-15T14:57:45;94835.53;;;-1.59;80.85
44751;BME280;30477;48.224;11.470;2022-12-15T15:00:21;94838.97;;;-1.60;80.94